Time;durP1;ratioP1;P1;durP2;ratioP2;P2;SDS_P1;SDS_P2;PMS_P1;PMS_P2;Temp;Humidity;BMP_temperature;BMP_pressure;BME280_temperature;BME280_humidity;BME280_pressure;Samples;Min_cycle;Max_cycle;Signal;HPM_P1;HPM_P2
2023/01/29 00:02:32;;;;;;;36.80;24.23;;;1.50;99.90;;;;;;5057764;28;20306;-32
2023/01/29 00:04:59;;;;;;;39.10;26.43;;;1.50;99.90;;;;;;5041773;28;20216;-31
2023/01/29 00:07:42;;;;;;;36.03;25.07;;;1.50;99.90;;;;;;5044070;28;20253;-32
2023/01/29 00:10:10;;;;;;;39.33;26.07;;;1.50;99.90;;;;;;5043157;28;20208;-32
2023/01/29 00:12:40;;;;;;;39.37;27.30;;;1.50;99.90;;;;;;5043665;28;20200;-32
2023/01/29 00:15:07;;;;;;;38.07;25.87;;;1.50;99.90;;;;;;5044019;28;20208;-31
2023/01/29 00:17:36;;;;;;;39.97;25.83;;;1.50;99.90;;;;;;5045125;28;20266;-32
2023/01/29 00:20:09;;;;;;;39.67;26.17;;;1.50;99.90;;;;;;5044265;28;20200;-32
2023/01/29 00:22:36;;;;;;;41.17;27.30;;;1.50;99.90;;;;;;5043368;28;20204;-31
2023/01/29 00:25:04;;;;;;;40.17;25.50;;;1.50;99.90;;;;;;5043405;28;20200;-31
2023/01/29 00:27:33;;;;;;;42.63;27.33;;;1.50;99.90;;;;;;5044096;28;20266;-32
2023/01/29 00:30:17;;;;;;;39.87;27.10;;;1.50;99.90;;;;;;5043374;28;20304;-31
2023/01/29 00:32:46;;;;;;;43.30;27.37;;;1.50;99.90;;;;;;5045198;28;20199;-33
2023/01/29 00:35:15;;;;;;;43.90;28.07;;;1.40;99.90;;;;;;5044296;28;20681;-34
2023/01/29 00:37:47;;;;;;;41.97;26.03;;;1.40;99.90;;;;;;5043861;28;20219;-33
2023/01/29 00:40:16;;;;;;;44.07;27.77;;;1.40;99.90;;;;;;5044207;28;20297;-34
2023/01/29 00:45:52;;;;;;;44.10;28.97;;;1.40;99.90;;;;;;5021581;28;20290;-33
2023/01/29 00:48:20;;;;;;;44.03;28.60;;;1.30;99.90;;;;;;5022040;28;20299;-34
2023/01/29 00:50:47;;;;;;;43.60;28.60;;;1.30;99.90;;;;;;5028120;28;20204;-33
2023/01/29 00:53:14;;;;;;;41.80;27.27;;;1.30;99.90;;;;;;5064813;28;20235;-33
2023/01/29 00:55:41;;;;;;;47.63;28.20;;;1.30;99.90;;;;;;5064409;28;20270;-34
2023/01/29 00:58:12;;;;;;;43.67;28.50;;;1.30;99.90;;;;;;5043954;28;20743;-33
2023/01/29 01:00:39;;;;;;;45.27;29.63;;;1.30;99.90;;;;;;5044922;28;20200;-33
2023/01/29 01:03:11;;;;;;;42.77;27.93;;;1.30;99.90;;;;;;5042800;28;20200;-33
2023/01/29 01:05:42;;;;;;;47.30;28.53;;;1.30;99.90;;;;;;5044279;28;20728;-33
2023/01/29 01:11:01;;;;;;;46.40;30.90;;;1.30;99.90;;;;;;5044365;28;20196;-33
2023/01/29 01:13:35;;;;;;;47.70;30.03;;;1.30;99.90;;;;;;5041319;28;20213;-33
2023/01/29 01:16:09;;;;;;;46.57;30.40;;;1.30;99.90;;;;;;5046923;28;20228;-33
2023/01/29 01:18:42;;;;;;;42.40;28.73;;;1.20;99.90;;;;;;5044451;28;20662;-33
2023/01/29 01:21:11;;;;;;;44.90;26.87;;;1.20;99.90;;;;;;5044156;28;20322;-33
2023/01/29 01:23:43;;;;;;;47.00;28.23;;;1.20;99.90;;;;;;5043430;28;20204;-33
2023/01/29 01:26:10;;;;;;;42.43;28.10;;;1.20;99.90;;;;;;5044606;28;20201;-33
2023/01/29 01:28:40;;;;;;;43.30;28.53;;;1.20;99.90;;;;;;5043646;28;20239;-32
2023/01/29 01:31:11;;;;;;;45.60;28.80;;;1.20;99.90;;;;;;5044347;28;20622;-32
2023/01/29 01:33:39;;;;;;;41.40;28.80;;;1.10;99.90;;;;;;5044934;28;20236;-33
2023/01/29 01:36:09;;;;;;;43.50;29.00;;;1.10;99.90;;;;;;5045548;28;20764;-33
2023/01/29 01:38:43;;;;;;;45.47;28.70;;;1.10;99.90;;;;;;5047216;28;20212;-33
2023/01/29 01:41:17;;;;;;;48.50;31.20;;;1.10;99.90;;;;;;5046731;28;20215;-32
2023/01/29 01:43:51;;;;;;;41.70;29.30;;;1.10;99.90;;;;;;5047327;28;20285;-32
2023/01/29 01:46:22;;;;;;;46.03;28.53;;;1.10;99.90;;;;;;5059470;28;20646;-32
2023/01/29 01:49:00;;;;;;;46.00;29.17;;;1.10;99.90;;;;;;5067047;28;20800;-32
2023/01/29 01:51:36;;;;;;;43.53;28.87;;;1.10;99.90;;;;;;5065977;28;20242;-32
2023/01/29 01:54:10;;;;;;;44.63;29.93;;;1.10;99.90;;;;;;5044989;28;20231;-32
2023/01/29 01:56:44;;;;;;;48.03;29.83;;;1.00;99.90;;;;;;5060690;28;20294;-31
2023/01/29 01:59:16;;;;;;;46.83;29.17;;;1.00;99.90;;;;;;5032658;28;20201;-32
2023/01/29 02:01:48;;;;;;;45.37;29.70;;;1.00;99.90;;;;;;5032212;28;20217;-32
2023/01/29 02:10:13;;;;;;;47.37;31.03;;;1.00;99.90;;;;;;5045876;28;20258;-32
2023/01/29 02:12:44;;;;;;;48.60;30.47;;;1.00;99.90;;;;;;5061116;28;20216;-32
2023/01/29 02:15:14;;;;;;;49.43;31.47;;;1.00;99.90;;;;;;5041000;28;20251;-32
2023/01/29 02:17:47;;;;;;;48.90;31.50;;;1.00;99.90;;;;;;5070203;28;20227;-32
2023/01/29 02:20:32;;;;;;;50.83;33.40;;;0.90;99.90;;;;;;5045118;28;20202;-32
2023/01/29 02:23:22;;;;;;;48.67;31.73;;;0.90;99.90;;;;;;5047680;28;20211;-32
2023/01/29 02:26:06;;;;;;;50.77;31.97;;;0.90;99.90;;;;;;5045854;28;20571;-32
2023/01/29 02:28:53;;;;;;;47.57;31.70;;;0.90;99.90;;;;;;5062266;28;20200;-32
2023/01/29 02:31:42;;;;;;;43.87;29.37;;;0.90;99.90;;;;;;5046662;28;20273;-32
2023/01/29 02:37:34;;;;;;;49.77;31.43;;;0.80;99.90;;;;;;5045019;28;20243;-32
2023/01/29 02:40:08;;;;;;;45.97;31.00;;;0.80;99.90;;;;;;5046116;28;20251;-32
2023/01/29 02:42:50;;;;;;;46.90;30.17;;;0.80;99.90;;;;;;5047981;28;20192;-32
2023/01/29 02:45:37;;;;;;;46.37;29.97;;;0.80;99.90;;;;;;5045176;28;20261;-32
2023/01/29 02:48:05;;;;;;;48.93;30.60;;;0.80;99.90;;;;;;5047688;28;20208;-32
2023/01/29 02:50:46;;;;;;;47.73;31.07;;;0.80;99.90;;;;;;5043843;28;20258;-32
2023/01/29 02:53:42;;;;;;;45.43;30.63;;;0.70;99.90;;;;;;5045983;28;20637;-32
2023/01/29 02:56:15;;;;;;;48.77;32.43;;;0.70;99.90;;;;;;5045277;28;20239;-32
2023/01/29 02:58:47;;;;;;;48.73;31.10;;;0.70;99.90;;;;;;5038961;28;20192;-32
2023/01/29 03:01:20;;;;;;;50.73;30.73;;;0.70;99.90;;;;;;5028503;28;20703;-32
2023/01/29 03:03:54;;;;;;;47.80;30.63;;;0.70;99.90;;;;;;5027079;28;20589;-32
2023/01/29 03:06:39;;;;;;;47.53;30.17;;;0.70;99.90;;;;;;5026404;28;20217;-32
2023/01/29 03:09:35;;;;;;;51.93;32.30;;;0.70;99.90;;;;;;5035915;28;20254;-32
2023/01/29 03:12:32;;;;;;;49.67;30.93;;;0.80;99.90;;;;;;5044609;28;20211;-32
2023/01/29 03:15:15;;;;;;;47.83;32.47;;;0.80;99.90;;;;;;5043566;28;20200;-32
2023/01/29 03:17:53;;;;;;;52.27;32.73;;;0.70;99.90;;;;;;5047120;28;20819;-32
2023/01/29 03:20:28;;;;;;;47.30;31.57;;;0.70;99.90;;;;;;5044548;28;20683;-32
2023/01/29 03:23:13;;;;;;;53.93;32.97;;;0.70;99.90;;;;;;5046754;28;20223;-32
2023/01/29 03:34:22;;;;;;;48.77;30.17;;;0.70;99.90;;;;;;5046980;28;20201;-32
2023/01/29 03:36:58;;;;;;;52.30;32.70;;;0.60;99.90;;;;;;5044674;28;20706;-32
2023/01/29 03:39:28;;;;;;;51.27;33.10;;;0.60;99.90;;;;;;5046591;28;20222;-32
2023/01/29 03:42:10;;;;;;;54.17;35.33;;;0.60;99.90;;;;;;5046402;28;20200;-32
2023/01/29 03:44:57;;;;;;;52.20;33.40;;;0.60;99.90;;;;;;5046348;28;20728;-32
2023/01/29 03:47:39;;;;;;;52.30;32.17;;;0.60;99.90;;;;;;5045380;28;20628;-32
2023/01/29 03:50:11;;;;;;;52.13;32.60;;;0.60;99.90;;;;;;5045396;28;20502;-32
2023/01/29 03:52:58;;;;;;;49.77;32.30;;;0.60;99.90;;;;;;5040059;28;20244;-32
2023/01/29 03:55:38;;;;;;;53.33;32.10;;;0.60;99.90;;;;;;5026242;28;20247;-32
2023/01/29 03:58:17;;;;;;;47.63;31.13;;;0.60;99.90;;;;;;5024068;28;20663;-32
2023/01/29 04:00:49;;;;;;;49.00;31.70;;;0.50;99.90;;;;;;5043311;28;20273;-32
2023/01/29 04:03:25;;;;;;;50.17;31.97;;;0.50;99.90;;;;;;5044656;28;20212;-32
2023/01/29 04:06:14;;;;;;;51.47;32.20;;;0.50;99.90;;;;;;5045182;28;20200;-32
2023/01/29 04:08:51;;;;;;;49.43;31.90;;;0.60;99.90;;;;;;5039835;28;20254;-32
2023/01/29 04:11:23;;;;;;;50.00;30.97;;;0.60;99.90;;;;;;5027093;28;20204;-32
2023/01/29 04:13:58;;;;;;;53.77;31.97;;;0.60;99.90;;;;;;5045998;28;20212;-32
2023/01/29 04:16:38;;;;;;;50.83;31.30;;;0.50;99.90;;;;;;5044086;28;20215;-32
2023/01/29 04:19:06;;;;;;;47.50;30.93;;;0.50;99.90;;;;;;5044589;28;20212;-32
2023/01/29 04:21:38;;;;;;;48.83;31.67;;;0.60;99.90;;;;;;5043440;28;20196;-32
2023/01/29 04:24:06;;;;;;;49.80;30.40;;;0.50;99.90;;;;;;5044144;28;20230;-32
2023/01/29 04:27:04;;;;;;;47.87;30.87;;;0.50;99.90;;;;;;5043661;28;20212;-32
2023/01/29 04:30:01;;;;;;;49.83;31.63;;;0.50;99.90;;;;;;5041446;28;20756;-31
2023/01/29 04:33:00;;;;;;;49.10;30.80;;;0.50;99.90;;;;;;5044204;28;20200;-32
2023/01/29 04:35:43;;;;;;;47.03;30.50;;;0.50;99.90;;;;;;5041324;28;20265;-32
2023/01/29 04:38:31;;;;;;;48.87;30.30;;;0.40;99.90;;;;;;5043712;28;20637;-32
2023/01/29 04:41:40;;;;;;;45.37;30.50;;;0.40;99.90;;;;;;5043581;28;20229;-32
2023/01/29 04:44:10;;;;;;;45.70;30.20;;;0.40;99.90;;;;;;5044979;28;20698;-32
2023/01/29 04:46:51;;;;;;;43.77;30.10;;;0.40;99.90;;;;;;5043820;28;20842;-32
2023/01/29 04:49:27;;;;;;;48.17;30.33;;;0.40;99.90;;;;;;5034812;28;20208;-32
2023/01/29 04:52:14;;;;;;;44.33;29.93;;;0.40;99.90;;;;;;5024950;28;20240;-32
2023/01/29 04:55:09;;;;;;;49.10;29.60;;;0.40;99.90;;;;;;5023398;28;20250;-32
2023/01/29 04:57:48;;;;;;;48.63;30.10;;;0.40;99.90;;;;;;5025230;28;20256;-32
2023/01/29 05:00:28;;;;;;;44.73;29.80;;;0.40;99.90;;;;;;5025155;28;20192;-32
2023/01/29 05:02:56;;;;;;;47.90;30.57;;;0.40;99.90;;;;;;5040752;28;20212;-31
2023/01/29 05:05:23;;;;;;;48.80;30.33;;;0.40;99.90;;;;;;5045060;28;20300;-32
2023/01/29 05:07:51;;;;;;;49.73;30.87;;;0.50;99.90;;;;;;5045651;28;20286;-31
2023/01/29 05:10:19;;;;;;;49.53;29.00;;;0.50;99.90;;;;;;5048965;28;20358;-32
2023/01/29 05:12:51;;;;;;;46.40;29.80;;;0.60;99.90;;;;;;5049400;28;20291;-32
2023/01/29 05:15:27;;;;;;;47.73;29.47;;;0.60;99.90;;;;;;5047356;28;20234;-32
2023/01/29 05:18:01;;;;;;;47.60;29.40;;;0.60;99.90;;;;;;5049036;28;20637;-32
2023/01/29 05:20:35;;;;;;;45.90;29.43;;;0.70;99.90;;;;;;5046935;28;20216;-31
2023/01/29 05:23:03;;;;;;;48.80;29.80;;;0.70;99.90;;;;;;5047386;28;20196;-32
2023/01/29 05:25:34;;;;;;;49.43;29.43;;;0.70;99.90;;;;;;5048476;28;20649;-32
2023/01/29 05:28:17;;;;;;;46.33;29.40;;;0.70;99.90;;;;;;5045557;28;20219;-32
2023/01/29 05:30:53;;;;;;;43.47;27.57;;;0.70;99.90;;;;;;5046836;28;20204;-32
2023/01/29 05:33:30;;;;;;;46.33;29.43;;;0.70;99.90;;;;;;5048771;28;20208;-32
2023/01/29 05:35:58;;;;;;;42.20;28.57;;;0.80;99.90;;;;;;5047132;28;20290;-32
2023/01/29 05:38:28;;;;;;;46.73;29.30;;;0.80;99.90;;;;;;5047217;28;20334;-32
2023/01/29 05:40:58;;;;;;;47.20;28.33;;;0.80;99.90;;;;;;5048099;28;20540;-32
2023/01/29 05:43:27;;;;;;;45.43;28.83;;;0.80;99.90;;;;;;5043721;28;20207;-32
2023/01/29 05:46:01;;;;;;;44.00;27.37;;;0.90;99.90;;;;;;5047940;28;20262;-32
2023/01/29 05:48:33;;;;;;;44.37;28.00;;;0.90;99.90;;;;;;5046971;28;20207;-32
2023/01/29 05:51:02;;;;;;;43.33;27.33;;;0.90;99.90;;;;;;5044022;28;20285;-32
2023/01/29 05:53:31;;;;;;;46.07;29.00;;;0.90;99.90;;;;;;5048380;28;20262;-32
2023/01/29 05:56:01;;;;;;;46.13;26.77;;;0.90;99.90;;;;;;5046515;28;20683;-32
2023/01/29 05:58:33;;;;;;;45.47;28.23;;;0.90;99.90;;;;;;5048017;28;20307;-32
2023/01/29 06:01:14;;;;;;;46.80;28.23;;;1.00;99.90;;;;;;5029381;28;20203;-32
2023/01/29 06:03:42;;;;;;;47.73;27.33;;;1.00;99.90;;;;;;5034052;28;20733;-31
2023/01/29 06:06:12;;;;;;;43.63;27.37;;;1.00;99.90;;;;;;5047668;28;20223;-32
2023/01/29 06:08:40;;;;;;;47.40;27.87;;;1.00;99.90;;;;;;5036089;28;20676;-31
2023/01/29 06:11:09;;;;;;;46.00;27.33;;;1.10;99.90;;;;;;5044256;28;20220;-31
2023/01/29 06:13:36;;;;;;;45.67;27.33;;;1.10;99.90;;;;;;5047920;28;20212;-32
2023/01/29 06:16:10;;;;;;;49.33;28.80;;;1.20;99.90;;;;;;5043665;28;20545;-32
2023/01/29 06:18:40;;;;;;;44.73;26.73;;;1.20;99.90;;;;;;5036526;28;20597;-31
2023/01/29 06:21:11;;;;;;;46.10;27.83;;;1.30;99.90;;;;;;5046173;28;20639;-32
2023/01/29 06:23:40;;;;;;;45.53;26.80;;;1.30;99.90;;;;;;5047698;28;20200;-32
2023/01/29 06:26:11;;;;;;;47.43;26.13;;;1.30;99.90;;;;;;5045860;28;20207;-31
2023/01/29 06:28:41;;;;;;;46.17;26.70;;;1.40;99.90;;;;;;5044450;28;20212;-32
2023/01/29 06:31:11;;;;;;;42.03;24.70;;;1.40;99.90;;;;;;5047288;28;20243;-32
2023/01/29 06:34:01;;;;;;;51.67;27.67;;;1.40;99.90;;;;;;5046062;28;20671;-32
2023/01/29 06:36:33;;;;;;;44.73;26.50;;;1.40;99.90;;;;;;5042330;28;20242;-31
2023/01/29 06:39:00;;;;;;;45.87;27.03;;;1.40;99.90;;;;;;5045015;28;20643;-31
2023/01/29 06:41:30;;;;;;;48.23;27.47;;;1.40;99.90;;;;;;5045471;28;20230;-32
2023/01/29 06:43:57;;;;;;;47.37;27.23;;;1.40;99.90;;;;;;5045949;28;20211;-31
2023/01/29 06:46:24;;;;;;;48.83;28.20;;;1.40;99.90;;;;;;5044053;28;20201;-32
2023/01/29 06:48:57;;;;;;;46.30;26.50;;;1.50;99.90;;;;;;5049362;28;20635;-31
2023/01/29 06:51:27;;;;;;;48.00;28.27;;;1.50;99.90;;;;;;5048246;28;20278;-32
2023/01/29 06:53:57;;;;;;;49.30;27.67;;;1.50;99.90;;;;;;5019047;28;20205;-32
2023/01/29 06:56:24;;;;;;;46.70;27.07;;;1.50;99.90;;;;;;5030232;28;20220;-32
2023/01/29 06:58:52;;;;;;;43.13;25.97;;;1.60;99.90;;;;;;5029323;28;20306;-31
2023/01/29 07:01:19;;;;;;;49.83;28.57;;;1.60;99.90;;;;;;5033660;28;20282;-32
2023/01/29 07:04:01;;;;;;;44.20;26.47;;;1.60;99.90;;;;;;5046715;28;20212;-31
2023/01/29 07:06:32;;;;;;;45.60;28.33;;;1.60;99.90;;;;;;5045732;28;20250;-31
2023/01/29 07:09:02;;;;;;;48.60;29.23;;;1.70;99.90;;;;;;5056931;28;20204;-31
2023/01/29 07:11:36;;;;;;;48.43;27.90;;;1.70;99.90;;;;;;5048883;28;20211;-32
2023/01/29 07:14:06;;;;;;;45.30;27.07;;;1.70;99.90;;;;;;5044264;28;20234;-32
2023/01/29 07:16:34;;;;;;;47.27;27.27;;;1.70;99.90;;;;;;5039720;28;20204;-32
2023/01/29 07:19:03;;;;;;;44.47;27.23;;;1.70;99.90;;;;;;5042607;28;20313;-32
2023/01/29 07:21:33;;;;;;;43.57;26.67;;;1.80;99.90;;;;;;5027887;28;20221;-32
2023/01/29 07:24:02;;;;;;;46.93;27.57;;;1.80;99.90;;;;;;5035472;28;20578;-31
2023/01/29 07:26:34;;;;;;;46.10;27.23;;;1.80;99.90;;;;;;5036207;28;20645;-31
2023/01/29 07:29:06;;;;;;;43.70;26.60;;;1.80;99.90;;;;;;5037557;28;20219;-32
2023/01/29 07:31:33;;;;;;;45.13;26.83;;;1.90;99.90;;;;;;5036297;28;20212;-32
2023/01/29 07:34:00;;;;;;;50.80;27.57;;;1.90;99.90;;;;;;5037028;28;20723;-32
2023/01/29 07:36:28;;;;;;;44.40;25.70;;;1.90;99.90;;;;;;5052404;28;20211;-32
2023/01/29 07:38:55;;;;;;;45.70;26.87;;;2.00;99.90;;;;;;5051550;28;20728;-32
2023/01/29 07:41:23;;;;;;;41.17;26.10;;;2.00;99.90;;;;;;5065557;28;20203;-32
2023/01/29 07:43:52;;;;;;;45.83;27.00;;;2.00;99.90;;;;;;5053139;28;20196;-32
2023/01/29 07:46:19;;;;;;;46.43;27.07;;;2.00;99.90;;;;;;5037907;28;20698;-31
2023/01/29 07:48:49;;;;;;;48.33;27.57;;;2.10;99.90;;;;;;5041577;28;20812;-31
2023/01/29 07:51:17;;;;;;;50.33;27.70;;;2.10;99.90;;;;;;5044884;28;20258;-32
2023/01/29 07:53:44;;;;;;;48.23;28.07;;;2.10;99.90;;;;;;5044168;28;20727;-31
2023/01/29 07:56:16;;;;;;;47.27;27.10;;;2.10;99.90;;;;;;5034910;28;20262;-32
2023/01/29 07:58:46;;;;;;;50.50;27.90;;;2.20;99.90;;;;;;5044430;28;20232;-32
2023/01/29 08:01:16;;;;;;;44.33;26.33;;;2.20;99.90;;;;;;5034697;28;20207;-31
2023/01/29 08:03:46;;;;;;;48.30;26.93;;;2.20;99.90;;;;;;5025158;28;20726;-32
2023/01/29 08:06:16;;;;;;;50.97;29.17;;;2.20;99.90;;;;;;5032348;28;20213;-32
2023/01/29 08:08:43;;;;;;;49.87;27.97;;;2.20;99.90;;;;;;5038932;28;20201;-32
2023/01/29 08:11:14;;;;;;;47.43;28.37;;;2.30;99.90;;;;;;5027277;28;20274;-31
2023/01/29 08:13:48;;;;;;;51.20;28.43;;;2.30;99.90;;;;;;5062439;28;20207;-31
2023/01/29 08:16:15;;;;;;;47.83;27.43;;;2.30;99.90;;;;;;5035618;28;20224;-31
2023/01/29 08:18:47;;;;;;;47.30;28.27;;;2.30;99.90;;;;;;5043628;28;20770;-31
2023/01/29 08:21:16;;;;;;;46.03;27.30;;;2.40;99.90;;;;;;5038738;28;22247;-32
2023/01/29 08:23:44;;;;;;;46.30;27.53;;;2.40;99.90;;;;;;5035111;28;20216;-32
2023/01/29 08:26:11;;;;;;;49.53;29.07;;;2.40;99.90;;;;;;5038207;28;20565;-32
2023/01/29 08:28:38;;;;;;;48.57;27.13;;;2.40;99.90;;;;;;5028645;28;20219;-31
2023/01/29 08:31:19;;;;;;;47.50;27.37;;;2.50;99.90;;;;;;5042869;28;20207;-32
2023/01/29 08:33:48;;;;;;;51.17;29.30;;;2.50;99.90;;;;;;5038771;28;20208;-32
2023/01/29 08:36:18;;;;;;;46.87;28.43;;;2.50;99.90;;;;;;5038528;28;20216;-32
2023/01/29 08:38:48;;;;;;;49.67;29.17;;;2.60;99.90;;;;;;5042275;28;20220;-32
2023/01/29 08:41:17;;;;;;;49.30;28.57;;;2.60;99.90;;;;;;5023495;28;20201;-31
2023/01/29 08:43:45;;;;;;;49.53;28.83;;;2.70;99.90;;;;;;5038021;28;20212;-31
2023/01/29 08:46:12;;;;;;;49.10;28.97;;;2.70;99.90;;;;;;5040090;28;20458;-31
2023/01/29 08:48:42;;;;;;;49.87;29.33;;;2.70;99.90;;;;;;5040002;28;20919;-31
2023/01/29 08:51:12;;;;;;;56.90;29.97;;;2.70;99.90;;;;;;5029562;28;20299;-31
2023/01/29 08:53:45;;;;;;;50.27;30.50;;;2.80;99.90;;;;;;5043884;28;20775;-31
2023/01/29 08:56:12;;;;;;;46.40;28.23;;;2.80;99.90;;;;;;5025960;28;20205;-31
2023/01/29 08:58:42;;;;;;;52.53;29.40;;;2.80;99.90;;;;;;5030316;28;20684;-31
2023/01/29 09:01:13;;;;;;;52.97;31.00;;;2.80;99.90;;;;;;5037904;28;20196;-31
2023/01/29 09:03:46;;;;;;;52.57;30.53;;;2.90;99.90;;;;;;5044513;28;20290;-32
2023/01/29 09:06:14;;;;;;;49.77;29.53;;;3.00;99.90;;;;;;5041888;28;20254;-32
2023/01/29 09:08:41;;;;;;;53.50;30.90;;;2.90;99.90;;;;;;5042649;28;20588;-31
2023/01/29 09:11:09;;;;;;;49.70;29.67;;;3.00;99.90;;;;;;5042423;28;20200;-31
2023/01/29 09:13:39;;;;;;;47.70;29.93;;;3.00;99.90;;;;;;5045767;28;20196;-31
2023/01/29 09:16:08;;;;;;;47.37;29.23;;;3.10;99.90;;;;;;5021059;28;20327;-31
2023/01/29 09:18:35;;;;;;;51.00;30.40;;;3.10;99.90;;;;;;5063676;28;20227;-31
2023/01/29 09:21:03;;;;;;;47.43;28.90;;;3.10;99.90;;;;;;5034848;28;20415;-31
2023/01/29 09:23:33;;;;;;;49.57;30.00;;;3.10;99.90;;;;;;5027233;28;20227;-31
2023/01/29 09:26:00;;;;;;;47.23;29.67;;;3.20;99.90;;;;;;5030672;28;20223;-31
2023/01/29 09:28:28;;;;;;;49.73;30.00;;;3.20;99.90;;;;;;5050024;28;20802;-31
2023/01/29 09:30:55;;;;;;;48.53;29.97;;;3.20;99.90;;;;;;5035629;28;20208;-31
2023/01/29 09:33:23;;;;;;;50.23;31.10;;;3.30;99.90;;;;;;5024205;28;20307;-31
2023/01/29 09:35:53;;;;;;;46.73;29.97;;;3.30;99.90;;;;;;5031663;28;20214;-31
2023/01/29 09:38:22;;;;;;;52.77;30.33;;;3.30;99.90;;;;;;5025463;28;20255;-31
2023/01/29 09:41:13;;;;;;;50.03;30.87;;;3.40;99.90;;;;;;5025711;28;20204;-31
2023/01/29 09:43:55;;;;;;;47.63;29.47;;;3.40;99.90;;;;;;5038097;28;20220;-31
2023/01/29 09:46:41;;;;;;;48.53;30.37;;;3.40;99.90;;;;;;5034891;28;20254;-31
2023/01/29 09:49:23;;;;;;;50.80;29.73;;;3.50;99.90;;;;;;5032540;28;20508;-31
2023/01/29 09:51:55;;;;;;;50.20;30.20;;;3.50;99.90;;;;;;5036307;28;20679;-31
2023/01/29 09:54:24;;;;;;;54.40;29.77;;;3.50;99.90;;;;;;5042444;28;20217;-31
2023/01/29 09:56:57;;;;;;;49.73;28.50;;;3.50;99.90;;;;;;5038319;28;20280;-31
2023/01/29 09:59:31;;;;;;;49.40;30.70;;;3.50;99.90;;;;;;5034639;28;20312;-31
2023/01/29 10:01:59;;;;;;;53.80;29.97;;;3.50;99.90;;;;;;5040348;28;20241;-31
2023/01/29 10:05:02;;;;;;;48.27;29.17;;;3.50;99.90;;;;;;5029816;28;20225;-31
2023/01/29 10:08:00;;;;;;;54.73;31.27;;;3.50;99.90;;;;;;5029243;28;20196;-31
2023/01/29 10:10:34;;;;;;;52.27;30.10;;;3.60;99.90;;;;;;5040956;28;20217;-31
2023/01/29 10:13:23;;;;;;;46.80;29.13;;;3.60;99.90;;;;;;5038031;28;20254;-31
2023/01/29 10:15:56;;;;;;;50.83;30.40;;;3.60;99.90;;;;;;5051964;28;20223;-31
2023/01/29 10:19:01;;;;;;;50.13;29.57;;;3.60;99.90;;;;;;5040018;28;20251;-31
2023/01/29 10:22:02;;;;;;;47.10;28.57;;;3.70;99.90;;;;;;5039746;28;20201;-31
2023/01/29 10:24:51;;;;;;;48.13;28.93;;;3.70;99.90;;;;;;5046421;28;20686;-31
2023/01/29 10:27:24;;;;;;;48.37;29.57;;;3.70;99.90;;;;;;5045042;28;20221;-31
2023/01/29 10:29:53;;;;;;;49.43;29.33;;;3.70;99.90;;;;;;5045633;28;20584;-31
2023/01/29 10:32:26;;;;;;;51.23;29.80;;;3.70;99.90;;;;;;5045595;28;20208;-31
2023/01/29 10:35:05;;;;;;;50.03;28.70;;;3.80;99.90;;;;;;5047031;28;20632;-31
2023/01/29 10:37:42;;;;;;;52.10;29.30;;;3.80;99.90;;;;;;5044230;28;20478;-31
2023/01/29 10:40:20;;;;;;;51.30;28.73;;;3.80;99.90;;;;;;5027165;28;20594;-31
2023/01/29 10:42:56;;;;;;;50.53;29.87;;;3.80;99.90;;;;;;5050849;28;20222;-31
2023/01/29 10:45:36;;;;;;;46.50;28.13;;;3.80;99.90;;;;;;5044313;28;20267;-31
2023/01/29 10:48:18;;;;;;;51.30;30.37;;;3.90;99.90;;;;;;5060265;28;20201;-31
2023/01/29 10:51:13;;;;;;;50.57;30.23;;;3.90;99.90;;;;;;5024670;28;20751;-31
2023/01/29 10:53:45;;;;;;;49.13;28.57;;;3.90;99.90;;;;;;5042156;28;20213;-31
2023/01/29 10:56:38;;;;;;;45.03;29.10;;;4.00;99.90;;;;;;5035694;28;20566;-31
2023/01/29 10:59:23;;;;;;;48.90;26.87;;;4.10;99.90;;;;;;5054367;28;20235;-31
2023/01/29 11:01:50;;;;;;;48.47;28.07;;;4.10;99.90;;;;;;5044223;28;20223;-31
2023/01/29 11:04:17;;;;;;;47.03;27.37;;;4.10;99.90;;;;;;5052039;28;20211;-31
2023/01/29 11:06:45;;;;;;;43.30;27.80;;;4.10;99.90;;;;;;5043305;28;20254;-31
2023/01/29 11:09:33;;;;;;;46.47;28.27;;;4.10;99.90;;;;;;5038730;28;20210;-31
2023/01/29 11:12:13;;;;;;;46.83;27.87;;;4.20;99.90;;;;;;5038278;28;20325;-31
2023/01/29 11:15:11;;;;;;;48.23;28.60;;;4.20;99.90;;;;;;5027023;28;20196;-31
2023/01/29 11:17:58;;;;;;;48.10;28.77;;;4.20;99.90;;;;;;5033839;28;20286;-31
2023/01/29 11:20:31;;;;;;;48.43;28.97;;;4.20;99.90;;;;;;5051128;28;20217;-31
2023/01/29 11:22:59;;;;;;;43.33;26.93;;;4.30;99.90;;;;;;5042481;28;20589;-33
2023/01/29 11:25:31;;;;;;;46.27;27.80;;;4.30;99.90;;;;;;5044954;28;20295;-31
2023/01/29 11:28:01;;;;;;;45.93;27.63;;;4.30;99.90;;;;;;5045777;28;20204;-30
2023/01/29 11:30:32;;;;;;;47.40;27.57;;;4.30;99.90;;;;;;5042464;28;20905;-31
2023/01/29 11:33:17;;;;;;;46.07;27.97;;;4.40;99.90;;;;;;5037275;28;20227;-31
2023/01/29 11:35:45;;;;;;;44.10;28.23;;;4.40;99.90;;;;;;5050390;28;20206;-33
2023/01/29 11:38:15;;;;;;;45.97;28.50;;;4.40;99.90;;;;;;5038109;28;20212;-33
2023/01/29 11:40:43;;;;;;;45.10;27.47;;;4.40;99.90;;;;;;5034487;28;20592;-33
2023/01/29 11:43:16;;;;;;;45.67;28.13;;;4.50;99.90;;;;;;5040894;28;20231;-33
2023/01/29 11:45:46;;;;;;;45.90;28.83;;;4.50;99.90;;;;;;5033229;28;20429;-33
2023/01/29 11:48:21;;;;;;;47.83;28.87;;;4.50;99.90;;;;;;5033750;28;20591;-33
2023/01/29 11:50:59;;;;;;;45.57;27.77;;;4.60;99.90;;;;;;5030390;28;20971;-34
2023/01/29 11:53:40;;;;;;;44.53;27.13;;;4.60;99.90;;;;;;5037998;28;20235;-33
2023/01/29 11:56:30;;;;;;;44.07;26.37;;;4.60;99.90;;;;;;5040231;28;20600;-33
2023/01/29 11:59:03;;;;;;;45.23;27.27;;;4.70;99.90;;;;;;5048899;28;20868;-33
2023/01/29 12:01:36;;;;;;;45.60;27.33;;;4.60;99.90;;;;;;5040989;28;20212;-33
2023/01/29 12:04:17;;;;;;;38.10;24.50;;;4.70;99.90;;;;;;5030202;28;20255;-33
2023/01/29 12:06:50;;;;;;;38.93;25.77;;;4.80;99.90;;;;;;5033311;28;20281;-33
2023/01/29 12:09:27;;;;;;;45.07;27.03;;;4.80;99.90;;;;;;5034457;28;20328;-31
2023/01/29 12:11:54;;;;;;;45.03;25.73;;;4.80;99.90;;;;;;5035227;28;20208;-31
2023/01/29 12:14:32;;;;;;;43.80;27.23;;;4.90;99.90;;;;;;5060687;28;20306;-31
2023/01/29 12:17:12;;;;;;;40.17;25.03;;;4.90;99.90;;;;;;5031719;28;20578;-31
2023/01/29 12:20:10;;;;;;;39.47;25.00;;;4.90;99.90;;;;;;5042970;28;20216;-31
2023/01/29 12:22:40;;;;;;;41.97;25.83;;;5.00;99.90;;;;;;5048154;28;20203;-31
2023/01/29 12:25:42;;;;;;;39.40;24.90;;;5.00;99.90;;;;;;5042033;28;20204;-31
2023/01/29 12:28:18;;;;;;;44.27;26.27;;;5.10;99.90;;;;;;5049962;28;20316;-31
2023/01/29 12:31:08;;;;;;;40.13;26.30;;;5.10;99.90;;;;;;5049549;28;20195;-31
2023/01/29 12:33:47;;;;;;;39.50;24.77;;;5.20;99.90;;;;;;5042019;28;20227;-31
2023/01/29 12:36:25;;;;;;;37.73;24.83;;;5.20;99.90;;;;;;5044659;28;20196;-31
2023/01/29 12:38:53;;;;;;;39.30;24.17;;;5.20;99.90;;;;;;5052888;28;20231;-32
2023/01/29 12:41:56;;;;;;;37.33;23.57;;;5.30;99.90;;;;;;5033296;28;20250;-31
2023/01/29 12:44:34;;;;;;;40.03;24.20;;;5.30;99.90;;;;;;5041801;28;20207;-31
2023/01/29 12:47:09;;;;;;;36.80;23.43;;;5.30;99.90;;;;;;5043105;28;20265;-31
2023/01/29 12:49:41;;;;;;;37.53;23.57;;;5.40;99.90;;;;;;5044279;28;20223;-31
2023/01/29 12:52:17;;;;;;;38.00;23.63;;;5.40;99.90;;;;;;5041373;28;20244;-31
2023/01/29 12:55:10;;;;;;;37.87;23.70;;;5.50;99.90;;;;;;5048145;28;20201;-31
2023/01/29 12:57:41;;;;;;;36.43;23.37;;;5.50;99.90;;;;;;5049889;28;20293;-31
2023/01/29 13:00:16;;;;;;;33.80;21.33;;;5.50;99.90;;;;;;5045355;28;20619;-32
2023/01/29 13:03:10;;;;;;;34.83;21.80;;;5.60;99.90;;;;;;5037479;28;20203;-32
2023/01/29 13:05:40;;;;;;;33.17;20.70;;;5.60;99.90;;;;;;5044430;28;20259;-32
2023/01/29 13:08:17;;;;;;;33.23;21.33;;;5.70;99.90;;;;;;5046555;28;20266;-32
2023/01/29 13:10:51;;;;;;;32.00;20.30;;;5.70;99.90;;;;;;5041377;28;20212;-32
2023/01/29 13:13:31;;;;;;;33.00;20.83;;;5.70;99.90;;;;;;5028970;28;20212;-32
2023/01/29 13:16:02;;;;;;;32.33;19.80;;;5.70;99.90;;;;;;5064750;28;20203;-32
2023/01/29 13:18:43;;;;;;;29.67;19.80;;;5.80;99.90;;;;;;5045760;28;20682;-32
2023/01/29 13:21:20;;;;;;;28.83;18.97;;;5.80;99.90;;;;;;5040645;28;20212;-32
2023/01/29 13:23:56;;;;;;;28.30;18.40;;;5.80;99.90;;;;;;5037105;28;20200;-32
2023/01/29 13:26:25;;;;;;;28.20;19.00;;;5.80;99.90;;;;;;5032043;28;20200;-32
2023/01/29 13:28:55;;;;;;;30.30;18.47;;;5.90;99.90;;;;;;5030184;28;20636;-32
2023/01/29 13:31:37;;;;;;;28.57;17.90;;;5.90;99.90;;;;;;5066757;28;20568;-32
2023/01/29 13:34:05;;;;;;;26.33;17.63;;;5.90;99.90;;;;;;5069116;28;20199;-32
2023/01/29 13:36:33;;;;;;;26.47;16.97;;;5.90;99.90;;;;;;5067764;28;20625;-32
2023/01/29 13:39:07;;;;;;;24.13;16.33;;;5.90;99.90;;;;;;5049989;28;20231;-32